Basco, Illinois
Current Conditions -  °F | °C
As of 2:15 AM on Sunday 26 Oct 2014 (Local Time) from KEOK Reporting Station
Clear Clear  
Wind Chill: 54°   Ceiling: Unl
Heat Index: 54°   Visibility: 10mi
Dew Point: 37°   Wind: 3mph
Humidity: 54%   Direction: 20°NNE
Pressure: 30.04"   Gusts: NA
Location:  40.33°N, 91.2°W
Report Text: KEOK 260715Z AUTO 02003KT 10SM CLR 12/03 A3004 RMK AO2
Loading
Personal Weather Stations






























Interactive Weather Map
Tropical Storm Tracking
New forecast layout! Learn more

10-Day Weather Forecast

Advertisements
Track Severe Weather on mobile